createdAt,value
2022-08-21T00:02:25.735Z,18.15
2022-08-21T00:04:57.737Z,20.90
2022-08-21T00:07:27.373Z,19.08
2022-08-21T00:09:57.120Z,19.77
2022-08-21T00:12:26.413Z,19.95
2022-08-21T00:14:58.052Z,18.77
2022-08-21T00:17:27.601Z,18.95
2022-08-21T00:19:56.512Z,20.15
2022-08-21T00:22:25.485Z,19.40
2022-08-21T00:24:54.580Z,20.27
2022-08-21T00:27:24.047Z,18.95
2022-08-21T00:29:53.919Z,19.92
2022-08-21T00:32:27.295Z,20.23
2022-08-21T00:34:56.862Z,19.27
2022-08-21T00:37:25.787Z,19.52
2022-08-21T00:39:55.171Z,20.50
2022-08-21T00:42:24.355Z,24.92
2022-08-21T00:44:53.548Z,19.45
2022-08-21T00:47:22.956Z,20.70
2022-08-21T00:49:52.263Z,20.77
2022-08-21T00:52:27.015Z,22.33
2022-08-21T00:54:57.900Z,22.73
2022-08-21T00:57:32.959Z,23.30
2022-08-21T01:00:06.548Z,25.20
2022-08-21T01:02:36.751Z,24.15
2022-08-21T01:05:06.961Z,25.08
2022-08-21T01:07:36.224Z,24.48
2022-08-21T01:10:06.918Z,26.70
2022-08-21T01:12:37.782Z,26.00
2022-08-21T01:15:08.181Z,29.65
2022-08-21T01:17:38.179Z,28.35
2022-08-21T01:20:10.608Z,26.98
2022-08-21T01:25:10.177Z,26.50
2022-08-21T01:27:39.954Z,27.33
2022-08-21T01:30:16.723Z,27.30
2022-08-21T01:32:46.449Z,26.67
2022-08-21T01:35:18.185Z,28.65
2022-08-21T01:37:48.611Z,26.65
2022-08-21T01:40:19.431Z,26.77
2022-08-21T01:42:48.960Z,29.35
2022-08-21T01:45:18.143Z,25.70
2022-08-21T01:47:48.024Z,28.58
2022-08-21T01:50:20.596Z,27.15
2022-08-21T01:52:50.590Z,30.13
2022-08-21T01:55:20.651Z,29.90
2022-08-21T01:57:50.078Z,26.73
2022-08-21T02:00:22.138Z,25.80
2022-08-21T02:02:52.354Z,28.02
2022-08-21T02:05:21.874Z,31.15
2022-08-21T02:07:53.922Z,32.30
2022-08-21T02:10:26.130Z,30.88
2022-08-21T02:15:24.759Z,27.00
2022-08-21T02:18:00.485Z,27.25
2022-08-21T02:20:38.119Z,31.05
2022-08-21T02:23:08.759Z,40.30
2022-08-21T02:25:39.061Z,31.65
2022-08-21T02:28:12.733Z,31.23
2022-08-21T02:30:47.057Z,33.72
2022-08-21T02:33:16.715Z,36.88
2022-08-21T02:35:48.067Z,35.80
2022-08-21T02:38:21.166Z,36.53
2022-08-21T02:40:53.156Z,37.58
2022-08-21T02:43:24.347Z,40.75
2022-08-21T02:45:54.617Z,41.55
2022-08-21T02:48:30.046Z,45.53
2022-08-21T02:51:01.786Z,47.70
2022-08-21T02:53:32.322Z,51.38
2022-08-21T02:56:04.045Z,51.45
2022-08-21T02:58:36.134Z,50.38
2022-08-21T03:01:06.058Z,51.83
2022-08-21T03:03:36.547Z,50.60
2022-08-21T03:06:07.546Z,52.75
2022-08-21T03:08:37.626Z,49.97
2022-08-21T03:11:08.287Z,49.83
2022-08-21T03:13:41.037Z,50.22
2022-08-21T03:16:10.693Z,50.78
2022-08-21T03:18:40.074Z,49.63
2022-08-21T03:21:09.451Z,47.70
2022-08-21T03:23:38.352Z,47.72
2022-08-21T03:26:08.028Z,50.67
2022-08-21T03:28:37.165Z,47.08
2022-08-21T03:31:07.578Z,47.35
2022-08-21T03:33:36.877Z,45.72
2022-08-21T03:36:08.804Z,48.00
2022-08-21T03:38:40.073Z,47.20
2022-08-21T03:41:09.329Z,47.10
2022-08-21T03:43:39.198Z,44.78
2022-08-21T03:46:09.848Z,46.75
2022-08-21T03:48:39.407Z,44.47
2022-08-21T03:51:08.927Z,46.05
2022-08-21T03:53:38.273Z,44.38
2022-08-21T03:56:08.615Z,48.25
2022-08-21T03:58:37.540Z,42.15
2022-08-21T04:01:08.731Z,37.67
2022-08-21T04:03:39.095Z,39.40
2022-08-21T04:06:09.815Z,43.47
2022-08-21T04:08:38.971Z,44.08
2022-08-21T04:11:08.335Z,39.17
2022-08-21T04:13:43.196Z,36.50
2022-08-21T04:16:14.459Z,31.48
2022-08-21T04:18:44.832Z,27.80
2022-08-21T04:21:14.183Z,26.10
2022-08-21T04:23:43.364Z,27.73
2022-08-21T04:26:12.362Z,26.23
2022-08-21T04:28:41.332Z,28.25
2022-08-21T04:31:11.782Z,30.20
2022-08-21T04:33:40.680Z,29.60
2022-08-21T04:36:10.530Z,29.60
2022-08-21T04:38:44.441Z,29.42
2022-08-21T04:41:13.532Z,25.38
2022-08-21T04:43:43.437Z,21.88
2022-08-21T04:46:13.546Z,24.88
2022-08-21T04:48:43.292Z,22.70
2022-08-21T04:51:18.253Z,24.15
2022-08-21T04:53:54.711Z,23.48
2022-08-21T04:56:28.057Z,26.70
2022-08-21T04:59:00.484Z,24.08
2022-08-21T05:01:32.157Z,29.33
2022-08-21T05:04:04.554Z,21.02
2022-08-21T05:06:37.213Z,24.88
2022-08-21T05:09:06.939Z,23.27
2022-08-21T05:11:36.904Z,26.30
2022-08-21T05:14:06.082Z,24.60
2022-08-21T05:16:37.401Z,25.88
2022-08-21T05:19:10.684Z,24.73
2022-08-21T05:21:43.195Z,20.20
2022-08-21T05:24:13.550Z,20.05
2022-08-21T05:26:43.073Z,27.15
2022-08-21T05:29:16.674Z,37.78
2022-08-21T05:31:49.263Z,25.00
2022-08-21T05:34:25.087Z,27.05
2022-08-21T05:36:54.161Z,27.92
2022-08-21T05:39:23.140Z,25.50
2022-08-21T05:41:52.085Z,29.73
2022-08-21T05:44:21.006Z,31.65
2022-08-21T05:46:51.343Z,25.80
2022-08-21T05:49:20.943Z,33.65
2022-08-21T05:51:49.787Z,24.55
2022-08-21T05:54:18.782Z,30.13
2022-08-21T05:56:48.542Z,29.40
2022-08-21T05:59:18.061Z,27.98
2022-08-21T06:01:47.459Z,31.33
2022-08-21T06:04:18.332Z,26.05
2022-08-21T06:06:49.615Z,25.15
2022-08-21T06:09:19.069Z,22.35
2022-08-21T06:11:48.415Z,25.52
2022-08-21T06:14:18.648Z,26.63
2022-08-21T06:16:48.765Z,29.95
2022-08-21T06:19:17.898Z,23.55
2022-08-21T06:21:46.798Z,31.33
2022-08-21T06:24:16.544Z,22.60
2022-08-21T06:26:45.547Z,21.30
2022-08-21T06:29:18.868Z,21.08
2022-08-21T06:31:51.648Z,20.67
2022-08-21T06:34:21.723Z,19.50
2022-08-21T06:36:50.765Z,16.48
2022-08-21T06:39:25.585Z,15.57
2022-08-21T06:41:59.920Z,17.17
2022-08-21T06:44:32.651Z,18.95
2022-08-21T06:47:01.811Z,22.17
2022-08-21T06:49:30.469Z,21.25
2022-08-21T06:51:59.392Z,20.60
2022-08-21T06:54:28.368Z,17.10
2022-08-21T06:56:57.168Z,17.75
2022-08-21T06:59:26.105Z,15.98
2022-08-21T07:01:55.295Z,19.67
2022-08-21T07:04:24.530Z,17.83
2022-08-21T07:06:53.196Z,16.58
2022-08-21T07:09:24.676Z,16.65
2022-08-21T07:11:56.944Z,16.42
2022-08-21T07:14:26.078Z,15.70
2022-08-21T07:16:55.552Z,17.20
2022-08-21T07:19:24.501Z,17.35
2022-08-21T07:21:59.998Z,17.83
2022-08-21T07:24:29.587Z,17.45
2022-08-21T07:26:59.042Z,18.23
2022-08-21T07:29:27.974Z,17.00
2022-08-21T07:31:56.706Z,20.25
2022-08-21T07:34:25.986Z,20.23
2022-08-21T07:36:55.054Z,18.77
2022-08-21T07:39:24.012Z,18.88
2022-08-21T07:41:53.547Z,21.27
2022-08-21T07:44:22.371Z,19.10
2022-08-21T07:46:51.024Z,19.30
2022-08-21T07:49:20.613Z,19.15
2022-08-21T07:51:49.346Z,17.13
2022-08-21T07:54:18.603Z,17.92
2022-08-21T07:56:59.586Z,18.63
2022-08-21T07:59:28.592Z,15.55
2022-08-21T08:01:58.498Z,16.67
2022-08-21T08:04:27.749Z,16.27
2022-08-21T08:06:56.615Z,15.65
2022-08-21T08:09:28.527Z,15.55
2022-08-21T08:11:57.567Z,16.65
2022-08-21T08:14:31.435Z,17.30
2022-08-21T08:17:00.847Z,15.20
2022-08-21T08:19:30.618Z,15.55
2022-08-21T08:21:59.363Z,14.63
2022-08-21T08:24:28.542Z,13.77
2022-08-21T08:26:58.899Z,14.45
2022-08-21T08:29:27.820Z,17.10
2022-08-21T08:31:59.978Z,14.57
2022-08-21T08:34:29.219Z,14.98
2022-08-21T08:36:59.917Z,14.27
2022-08-21T08:39:30.144Z,15.15
2022-08-21T08:42:33.686Z,13.68
2022-08-21T08:45:07.207Z,14.18
2022-08-21T08:47:40.526Z,14.52
2022-08-21T08:50:14.853Z,14.85
2022-08-21T08:52:51.139Z,17.00
2022-08-21T08:55:27.252Z,15.32
2022-08-21T08:57:57.567Z,13.45
2022-08-21T09:00:27.550Z,14.52
2022-08-21T09:03:03.360Z,13.32
2022-08-21T09:05:50.463Z,14.30
2022-08-21T09:08:37.085Z,12.73
2022-08-21T09:11:33.738Z,11.77
2022-08-21T09:14:47.924Z,13.73
2022-08-21T09:17:17.424Z,15.45
2022-08-21T09:20:36.421Z,12.13
2022-08-21T09:23:13.917Z,12.38
2022-08-21T09:26:02.355Z,11.82
2022-08-21T09:28:37.070Z,13.45
2022-08-21T09:31:18.704Z,14.55
2022-08-21T09:33:48.075Z,11.48
2022-08-21T09:36:43.740Z,11.75
2022-08-21T09:39:15.466Z,12.30
2022-08-21T09:41:44.470Z,13.48
2022-08-21T09:44:13.740Z,13.50
2022-08-21T09:46:54.554Z,13.80
2022-08-21T09:49:38.392Z,11.30
2022-08-21T09:52:27.637Z,12.35
2022-08-21T09:54:58.299Z,12.05
2022-08-21T09:57:46.255Z,10.63
2022-08-21T10:00:27.601Z,10.23
2022-08-21T10:02:56.627Z,12.15
2022-08-21T10:05:30.132Z,11.88
2022-08-21T10:07:59.108Z,11.75
2022-08-21T10:10:39.496Z,9.85
2022-08-21T10:13:36.921Z,11.00
2022-08-21T10:16:14.049Z,13.77
2022-08-21T10:18:59.302Z,10.27
2022-08-21T10:21:41.670Z,9.52
2022-08-21T10:24:31.170Z,10.57
2022-08-21T10:27:13.350Z,11.93
2022-08-21T10:29:52.584Z,10.20
2022-08-21T10:32:56.934Z,11.48
2022-08-21T10:35:32.685Z,10.30
2022-08-21T10:38:50.408Z,9.80
2022-08-21T10:41:31.275Z,11.43
2022-08-21T10:44:30.171Z,10.65
2022-08-21T10:47:14.033Z,10.38
2022-08-21T10:50:06.888Z,10.68
2022-08-21T10:52:46.421Z,10.63
2022-08-21T10:55:33.622Z,9.50
2022-08-21T10:58:26.543Z,8.73
2022-08-21T11:01:03.593Z,9.25
2022-08-21T11:03:46.078Z,9.30
2022-08-21T11:06:26.181Z,8.75
2022-08-21T11:09:09.756Z,8.10
2022-08-21T11:11:59.536Z,10.07
2022-08-21T11:14:57.851Z,7.63
2022-08-21T11:17:45.583Z,8.27
2022-08-21T11:20:18.255Z,8.88
2022-08-21T11:22:58.944Z,9.20
2022-08-21T11:25:36.461Z,9.23
2022-08-21T11:28:24.858Z,9.35
2022-08-21T11:31:00.098Z,9.90
2022-08-21T11:33:37.373Z,11.98
2022-08-21T11:36:30.947Z,12.15
2022-08-21T11:39:14.690Z,26.33
2022-08-21T11:42:08.758Z,23.88
2022-08-21T11:45:09.832Z,15.82
2022-08-21T11:48:02.994Z,17.98
2022-08-21T11:50:36.155Z,21.60
2022-08-21T11:53:15.665Z,13.52
2022-08-21T11:55:53.671Z,13.15
2022-08-21T11:58:29.189Z,24.10
2022-08-21T12:01:09.643Z,11.68
2022-08-21T12:03:42.864Z,20.33
2022-08-21T12:06:24.127Z,10.90
2022-08-21T12:09:02.369Z,16.63
2022-08-21T12:11:31.901Z,18.35
2022-08-21T12:14:03.509Z,16.30
2022-08-21T12:16:38.748Z,13.88
2022-08-21T12:19:33.031Z,12.80
2022-08-21T12:22:08.497Z,16.92
2022-08-21T12:25:05.631Z,20.58
2022-08-21T12:28:05.096Z,11.30
2022-08-21T12:30:41.186Z,11.27
2022-08-21T12:33:32.008Z,11.38
2022-08-21T12:36:27.898Z,10.02
2022-08-21T12:39:02.314Z,11.52
2022-08-21T12:41:40.755Z,9.15
2022-08-21T12:44:30.707Z,14.95
2022-08-21T12:47:05.111Z,11.90
2022-08-21T12:49:45.609Z,11.45
2022-08-21T12:52:35.690Z,9.38
2022-08-21T12:55:10.030Z,10.60
2022-08-21T12:57:40.473Z,11.40
2022-08-21T13:00:14.844Z,9.98
2022-08-21T13:02:51.598Z,11.45
2022-08-21T13:05:36.821Z,11.88
2022-08-21T13:08:08.347Z,11.07
2022-08-21T13:10:39.082Z,13.98
2022-08-21T13:13:14.542Z,13.13
2022-08-21T13:16:00.587Z,10.57
2022-08-21T13:18:32.805Z,12.85
2022-08-21T13:21:16.441Z,13.23
2022-08-21T13:23:49.090Z,10.88
2022-08-21T13:26:22.250Z,12.77
2022-08-21T13:28:52.353Z,10.27
2022-08-21T13:31:33.425Z,10.43
2022-08-21T13:34:03.019Z,13.73
2022-08-21T13:36:36.647Z,13.45
2022-08-21T13:39:09.103Z,11.30
2022-08-21T13:41:42.687Z,12.02
2022-08-21T13:44:37.592Z,15.15
2022-08-21T13:47:08.804Z,12.95
2022-08-21T13:49:44.375Z,12.07
2022-08-21T13:52:25.851Z,12.23
2022-08-21T13:55:03.474Z,16.70
2022-08-21T13:57:35.569Z,18.00
2022-08-21T14:00:18.092Z,19.42
2022-08-21T14:02:51.821Z,19.08
2022-08-21T14:05:29.646Z,18.52
2022-08-21T14:08:22.735Z,18.13
2022-08-21T14:11:00.337Z,25.58
2022-08-21T14:13:39.059Z,21.10
2022-08-21T14:16:16.600Z,21.85
2022-08-21T14:18:48.504Z,24.73
2022-08-21T14:21:29.692Z,26.05
2022-08-21T14:24:41.447Z,22.73
2022-08-21T14:27:10.685Z,18.52
2022-08-21T14:29:44.106Z,22.20
2022-08-21T14:32:24.948Z,21.25
2022-08-21T14:34:58.045Z,21.77
2022-08-21T14:37:28.556Z,20.27
2022-08-21T14:39:57.630Z,21.02
2022-08-21T14:42:27.364Z,23.95
2022-08-21T14:45:02.208Z,23.75
2022-08-21T14:47:31.047Z,19.65
2022-08-21T14:50:00.610Z,20.58
2022-08-21T14:52:29.347Z,19.10
2022-08-21T14:54:58.613Z,18.58
2022-08-21T14:57:29.266Z,18.05
2022-08-21T15:00:01.765Z,20.88
2022-08-21T15:02:31.367Z,18.23
2022-08-21T15:05:00.416Z,19.33
2022-08-21T15:07:29.567Z,18.23
2022-08-21T15:09:58.679Z,19.02
2022-08-21T15:12:28.190Z,19.77
2022-08-21T15:14:57.512Z,18.55
2022-08-21T15:17:26.675Z,18.73
2022-08-21T15:19:55.758Z,19.75
2022-08-21T15:22:27.772Z,21.95
2022-08-21T15:24:57.234Z,18.50
2022-08-21T15:27:26.072Z,20.77
2022-08-21T15:29:56.150Z,20.08
2022-08-21T15:32:29.327Z,19.90
2022-08-21T15:34:59.564Z,19.73
2022-08-21T15:37:28.887Z,19.73
2022-08-21T15:39:57.677Z,18.67
2022-08-21T15:42:29.294Z,18.35
2022-08-21T15:45:00.143Z,19.13
2022-08-21T15:47:35.603Z,16.70
2022-08-21T15:50:10.024Z,16.50
2022-08-21T15:52:39.519Z,17.75
2022-08-21T15:55:09.380Z,17.48
2022-08-21T15:57:39.709Z,15.45
2022-08-21T16:00:16.328Z,13.63
2022-08-21T16:02:49.311Z,13.05
2022-08-21T16:05:18.973Z,12.10
2022-08-21T16:07:49.540Z,12.20
2022-08-21T16:10:22.060Z,12.35
2022-08-21T16:13:00.973Z,12.63
2022-08-21T16:15:30.930Z,12.60
2022-08-21T16:18:00.716Z,12.60
2022-08-21T16:20:31.133Z,12.43
2022-08-21T16:23:01.210Z,12.40
2022-08-21T16:25:30.539Z,13.57
2022-08-21T16:28:04.026Z,12.90
2022-08-21T16:30:33.744Z,12.85
2022-08-21T16:33:04.416Z,12.50
2022-08-21T16:35:33.673Z,16.10
2022-08-21T16:38:03.552Z,14.88
2022-08-21T16:40:32.274Z,16.35
2022-08-21T16:43:01.161Z,14.02
2022-08-21T16:45:33.230Z,15.90
2022-08-21T16:48:05.555Z,15.27
2022-08-21T16:50:34.493Z,16.90
2022-08-21T16:53:03.710Z,16.10
2022-08-21T16:55:32.974Z,16.15
2022-08-21T16:58:04.200Z,17.40
2022-08-21T17:00:33.485Z,16.40
2022-08-21T17:03:02.272Z,17.40
2022-08-21T17:05:31.363Z,17.80
2022-08-21T17:08:00.241Z,18.65
2022-08-21T17:10:29.136Z,18.00
2022-08-21T17:13:00.525Z,16.40
2022-08-21T17:15:33.647Z,15.57
2022-08-21T17:18:04.260Z,16.40
2022-08-21T17:20:33.548Z,17.05
2022-08-21T17:23:02.280Z,15.95
2022-08-21T17:25:32.618Z,15.68
2022-08-21T17:28:01.929Z,15.32
2022-08-21T17:30:31.064Z,18.00
2022-08-21T17:33:01.834Z,16.35
2022-08-21T17:35:31.041Z,17.42
2022-08-21T17:38:01.303Z,17.70
2022-08-21T17:40:32.405Z,17.13
2022-08-21T17:43:09.752Z,17.08
2022-08-21T17:45:43.620Z,17.65
2022-08-21T17:48:13.262Z,17.02
2022-08-21T17:50:42.347Z,17.90
2022-08-21T17:53:11.299Z,18.48
2022-08-21T17:55:42.580Z,19.85
2022-08-21T17:58:14.546Z,18.00
2022-08-21T18:00:44.279Z,17.35
2022-08-21T18:03:21.612Z,19.40
2022-08-21T18:05:52.871Z,20.08
2022-08-21T18:08:21.903Z,25.50
2022-08-21T18:10:53.163Z,27.77
2022-08-21T18:13:27.816Z,32.50
2022-08-21T18:15:58.813Z,31.85
2022-08-21T18:18:29.809Z,36.35
2022-08-21T18:20:59.015Z,38.33
2022-08-21T18:23:44.351Z,35.63
2022-08-21T18:26:24.829Z,35.20
2022-08-21T18:28:54.143Z,34.17
2022-08-21T18:31:23.252Z,35.88
2022-08-21T18:33:57.961Z,34.60
2022-08-21T18:36:31.052Z,33.13
2022-08-21T18:41:50.472Z,25.58
2022-08-21T18:44:23.194Z,24.63
2022-08-21T18:47:05.635Z,23.88
2022-08-21T18:49:34.806Z,24.08
2022-08-21T18:52:03.953Z,23.10
2022-08-21T18:54:33.400Z,21.65
2022-08-21T18:57:09.095Z,21.60
2022-08-21T18:59:39.024Z,21.98
2022-08-21T19:02:09.242Z,18.42
2022-08-21T19:07:28.527Z,17.17
2022-08-21T19:10:24.283Z,17.35
2022-08-21T19:12:47.251Z,15.57
2022-08-21T19:15:18.999Z,17.73
2022-08-21T19:17:50.739Z,14.68
2022-08-21T19:20:27.695Z,15.40
2022-08-21T19:22:57.661Z,13.77
2022-08-21T19:25:33.870Z,13.00
2022-08-21T19:28:13.342Z,13.35
2022-08-21T19:30:47.933Z,13.05
2022-08-21T19:33:23.404Z,11.73
2022-08-21T19:35:54.587Z,12.43
2022-08-21T19:38:24.520Z,13.32
2022-08-21T19:40:56.018Z,12.02
2022-08-21T19:43:26.313Z,11.87
2022-08-21T19:46:00.445Z,12.55
2022-08-21T19:48:30.707Z,11.35
2022-08-21T19:51:00.081Z,12.35
2022-08-21T19:53:29.456Z,12.60
2022-08-21T19:55:58.646Z,12.13
2022-08-21T19:58:36.239Z,13.05
2022-08-21T20:01:16.550Z,12.98
2022-08-21T20:03:54.147Z,13.23
2022-08-21T20:06:25.391Z,12.50
2022-08-21T20:08:56.136Z,12.77
2022-08-21T20:11:32.660Z,13.90
2022-08-21T20:14:02.377Z,14.65
2022-08-21T20:16:34.743Z,13.93
2022-08-21T20:19:06.232Z,13.27
2022-08-21T20:21:43.935Z,13.35
2022-08-21T20:24:15.468Z,14.10
2022-08-21T20:26:48.766Z,14.70
2022-08-21T20:29:24.626Z,13.35
2022-08-21T20:32:01.206Z,13.98
2022-08-21T20:34:30.474Z,15.77
2022-08-21T20:37:01.044Z,13.98
2022-08-21T20:39:30.068Z,13.52
2022-08-21T20:41:59.927Z,13.88
2022-08-21T20:44:33.708Z,14.35
2022-08-21T20:47:08.534Z,12.70
2022-08-21T20:49:49.496Z,15.82
2022-08-21T20:52:20.530Z,15.27
2022-08-21T20:55:03.116Z,17.13
2022-08-21T20:57:51.164Z,17.08
2022-08-21T21:00:23.339Z,18.95
2022-08-21T21:03:06.514Z,14.23
2022-08-21T21:05:42.593Z,14.43
2022-08-21T21:08:31.810Z,15.48
2022-08-21T21:11:24.109Z,15.43
2022-08-21T21:14:05.584Z,15.40
2022-08-21T21:16:51.122Z,17.90
2022-08-21T21:19:58.508Z,17.65
2022-08-21T21:22:43.545Z,18.40
2022-08-21T21:25:20.184Z,19.17
2022-08-21T21:27:59.444Z,16.83
2022-08-21T21:30:36.797Z,17.58
2022-08-21T21:33:06.630Z,17.42
2022-08-21T21:36:11.727Z,19.73
2022-08-21T21:38:55.271Z,18.45
2022-08-21T21:41:59.032Z,17.67
2022-08-21T21:45:07.136Z,17.35
2022-08-21T21:47:45.900Z,16.83
2022-08-21T21:50:46.522Z,19.15
2022-08-21T21:53:21.376Z,18.35
2022-08-21T21:55:56.185Z,18.05
2022-08-21T21:58:52.876Z,18.80
2022-08-21T22:01:30.447Z,24.55
2022-08-21T22:04:03.940Z,21.02
2022-08-21T22:06:57.735Z,21.10
2022-08-21T22:09:43.862Z,23.90
2022-08-21T22:12:25.410Z,22.65
2022-08-21T22:14:54.385Z,24.20
2022-08-21T22:17:54.174Z,23.83
2022-08-21T22:20:35.230Z,24.63
2022-08-21T22:23:10.395Z,26.33
2022-08-21T22:25:45.438Z,25.35
2022-08-21T22:28:18.023Z,24.80
2022-08-21T22:31:12.913Z,27.33
2022-08-21T22:33:43.571Z,25.80
2022-08-21T22:36:20.575Z,26.45
2022-08-21T22:41:42.909Z,26.63
2022-08-21T22:44:27.184Z,23.00
2022-08-21T22:47:03.041Z,21.98
2022-08-21T22:49:49.816Z,21.90
2022-08-21T22:52:26.790Z,24.13
2022-08-21T22:54:59.991Z,24.90
2022-08-21T22:57:36.717Z,27.52
2022-08-21T23:00:12.148Z,30.50
2022-08-21T23:02:52.241Z,32.35
2022-08-21T23:05:33.068Z,32.20
2022-08-21T23:08:27.439Z,32.03
2022-08-21T23:11:03.033Z,33.58
2022-08-21T23:13:45.929Z,34.17
2022-08-21T23:16:56.843Z,34.03
2022-08-21T23:19:38.019Z,37.97
2022-08-21T23:22:33.616Z,44.45
2022-08-21T23:25:27.440Z,50.25
2022-08-21T23:28:18.955Z,53.05
2022-08-21T23:31:26.776Z,57.35
2022-08-21T23:34:06.115Z,56.63
2022-08-21T23:37:08.401Z,54.05
2022-08-21T23:40:18.563Z,50.17
2022-08-21T23:42:50.142Z,49.70
2022-08-21T23:45:48.973Z,47.72
2022-08-21T23:48:38.429Z,44.20
2022-08-21T23:51:45.632Z,40.05
2022-08-21T23:54:49.397Z,40.92
2022-08-21T23:57:37.027Z,38.30
